Time;durP1;ratioP1;P1;durP2;ratioP2;P2;SDS_P1;SDS_P2;PMS_P1;PMS_P2;Temp;Humidity;BMP_temperature;BMP_pressure;BME280_temperature;BME280_humidity;BME280_pressure;Samples;Min_cycle;Max_cycle;Signal;HPM_P1;HPM_P2
2023/05/29 00:03:13;;;;;;;7.75;5.13;;;;;;;;;;4890166;29;20073;-71
2023/05/29 00:07:16;;;;;;;13.38;4.72;;;;;;;;;;4853881;29;20136;-71
2023/05/29 00:10:55;;;;;;;13.88;4.53;;;;;;;;;;4872020;29;20575;-71
2023/05/29 00:18:20;;;;;;;11.60;4.93;;;;;;;;;;4782927;30;20553;-71
2023/05/29 00:29:49;;;;;;;13.52;5.35;;;;;;;;;;4821571;29;21011;-72
2023/05/29 00:33:23;;;;;;;12.15;4.40;;;;;;;;;;4875188;29;20502;-72
2023/05/29 00:36:49;;;;;;;10.35;5.22;;;;;;;;;;4914158;29;20051;-72
2023/05/29 00:44:21;;;;;;;12.52;4.95;;;;;;;;;;4935366;29;20082;-72
2023/05/29 00:48:11;;;;;;;8.13;5.35;;;;;;;;;;4884285;29;20060;-72
2023/05/29 00:52:11;;;;;;;13.75;5.90;;;;;;;;;;4915370;29;20043;-72
2023/05/29 00:56:00;;;;;;;12.13;6.90;;;;;;;;;;4933803;29;20113;-72
2023/05/29 00:59:52;;;;;;;11.90;6.60;;;;;;;;;;4921429;29;20513;-72
2023/05/29 01:03:28;;;;;;;12.07;5.38;;;;;;;;;;4876317;29;20064;-72
2023/05/29 01:06:34;;;;;;;7.97;5.20;;;;;;;;;;4820610;29;20132;-72
2023/05/29 01:14:29;;;;;;;7.82;4.90;;;;;;;;;;4912580;29;20048;-72
2023/05/29 01:18:21;;;;;;;8.15;4.78;;;;;;;;;;4855101;29;20207;-71
2023/05/29 01:22:01;;;;;;;9.95;5.03;;;;;;;;;;4878520;29;20135;-71
2023/05/29 01:25:49;;;;;;;11.02;5.43;;;;;;;;;;4989219;28;20133;-70
2023/05/29 01:40:18;;;;;;;6.28;4.38;;;;;;;;;;4969886;28;20073;-71
2023/05/29 01:42:44;;;;;;;6.60;4.53;;;;;;;;;;4980345;28;20060;-71
2023/05/29 01:45:53;;;;;;;6.03;4.43;;;;;;;;;;5011394;28;20329;-71
2023/05/29 01:49:45;;;;;;;5.50;4.00;;;;;;;;;;4998313;28;20053;-72
2023/05/29 01:53:17;;;;;;;5.47;3.95;;;;;;;;;;5029012;28;20072;-72
2023/05/29 01:56:59;;;;;;;6.22;4.65;;;;;;;;;;4995264;28;20180;-71
2023/05/29 02:00:43;;;;;;;10.70;5.10;;;;;;;;;;5026562;28;20071;-71
2023/05/29 02:04:32;;;;;;;7.45;5.05;;;;;;;;;;5027687;28;20045;-71
2023/05/29 02:08:12;;;;;;;13.98;5.88;;;;;;;;;;5038091;28;20083;-71
2023/05/29 02:11:49;;;;;;;7.72;4.95;;;;;;;;;;4968287;28;20039;-72
2023/05/29 02:19:40;;;;;;;9.57;4.82;;;;;;;;;;4974941;28;20050;-72
2023/05/29 02:22:54;;;;;;;12.07;5.35;;;;;;;;;;4939961;28;20133;-71
2023/05/29 02:26:20;;;;;;;11.38;4.35;;;;;;;;;;4956384;28;20190;-70
2023/05/29 02:30:08;;;;;;;9.63;4.30;;;;;;;;;;4905568;29;20074;-70
2023/05/29 02:37:39;;;;;;;13.95;5.60;;;;;;;;;;4823780;29;20054;-71
2023/05/29 02:40:17;;;;;;;15.00;4.93;;;;;;;;;;4849274;29;20056;-70
2023/05/29 02:43:23;;;;;;;17.63;3.97;;;;;;;;;;4916947;29;20049;-70
2023/05/29 02:50:30;;;;;;;;;;;;;;;;;;4970866;28;20573;-70
2023/05/29 02:54:25;;;;;;;11.07;4.57;;;;;;;;;;4969774;28;19964;-71
2023/05/29 03:01:15;;;;;;;10.43;4.30;;;;;;;;;;4948047;29;19918;-71
2023/05/29 03:04:53;;;;;;;8.05;4.18;;;;;;;;;;4950360;28;20051;-72
2023/05/29 03:08:25;;;;;;;15.70;4.57;;;;;;;;;;4936255;28;20163;-72
2023/05/29 03:11:53;;;;;;;10.45;4.30;;;;;;;;;;4967105;28;20106;-71
2023/05/29 03:15:48;;;;;;;5.78;3.75;;;;;;;;;;4968327;28;20125;-71
2023/05/29 03:26:44;;;;;;;18.02;4.63;;;;;;;;;;4999541;28;20565;-71
2023/05/29 03:42:10;;;;;;;14.32;5.18;;;;;;;;;;4974953;28;20046;-70
2023/05/29 03:45:56;;;;;;;13.70;4.38;;;;;;;;;;4933528;29;20590;-72
2023/05/29 03:49:49;;;;;;;14.50;5.00;;;;;;;;;;4894131;29;20099;-72
2023/05/29 03:52:53;;;;;;;22.92;6.13;;;;;;;;;;4895539;29;20131;-71
2023/05/29 03:58:54;;;;;;;19.80;7.20;;;;;;;;;;4952188;28;20046;-71
2023/05/29 04:02:27;;;;;;;21.77;6.03;;;;;;;;;;4972583;28;20038;-72
2023/05/29 04:06:02;;;;;;;17.55;6.80;;;;;;;;;;4935177;28;20551;-71
2023/05/29 04:09:33;;;;;;;23.45;6.07;;;;;;;;;;4977931;28;20076;-72
2023/05/29 04:13:04;;;;;;;14.50;6.32;;;;;;;;;;4971586;28;20082;-72
2023/05/29 04:19:55;;;;;;;18.75;6.60;;;;;;;;;;4984868;28;20075;-74
2023/05/29 04:23:56;;;;;;;20.27;6.80;;;;;;;;;;4930667;29;20050;-73
2023/05/29 04:27:18;;;;;;;20.23;6.63;;;;;;;;;;4888853;29;20467;-71
2023/05/29 04:34:49;;;;;;;15.20;5.68;;;;;;;;;;4849573;29;20048;-72
2023/05/29 04:38:31;;;;;;;8.90;5.20;;;;;;;;;;4887159;29;20447;-73
2023/05/29 04:45:44;;;;;;;14.77;6.22;;;;;;;;;;4839952;29;20429;-72
2023/05/29 04:57:15;;;;;;;17.63;7.50;;;;;;;;;;4839045;29;20046;-73
2023/05/29 05:01:17;;;;;;;38.35;9.32;;;;;;;;;;4855142;29;20608;-73
2023/05/29 05:08:36;;;;;;;20.58;5.40;;;;;;;;;;4838824;29;20421;-73
2023/05/29 05:16:18;;;;;;;10.63;5.22;;;;;;;;;;4820512;29;20614;-74
2023/05/29 05:19:23;;;;;;;9.52;5.60;;;;;;;;;;4783564;29;20089;-73
2023/05/29 05:22:59;;;;;;;12.38;5.75;;;;;;;;;;4760430;30;20109;-73
2023/05/29 05:53:37;;;;;;;18.83;8.85;;;;;;;;;;4785292;29;20534;-73
2023/05/29 06:01:14;;;;;;;18.25;7.35;;;;;;;;;;4801349;29;20059;-72
2023/05/29 06:09:09;;;;;;;7.88;4.78;;;;;;;;;;4865620;29;20515;-72
2023/05/29 06:12:57;;;;;;;7.88;4.72;;;;;;;;;;4874685;29;20052;-72
2023/05/29 06:24:30;;;;;;;8.95;4.97;;;;;;;;;;4706388;29;20059;-75
2023/05/29 06:28:21;;;;;;;10.77;4.85;;;;;;;;;;4669703;30;20101;-74
2023/05/29 06:32:13;;;;;;;9.60;4.53;;;;;;;;;;4694306;30;20426;-74
2023/05/29 06:36:05;;;;;;;8.68;4.55;;;;;;;;;;4667491;30;20053;-73
2023/05/29 06:43:43;;;;;;;10.05;5.55;;;;;;;;;;4690548;30;20467;-72
2023/05/29 06:50:54;;;;;;;;;;;;;;;;;;4719924;30;20566;-72
2023/05/29 06:58:29;;;;;;;12.02;5.60;;;;;;;;;;4891456;29;20333;-73
2023/05/29 07:01:58;;;;;;;7.07;4.60;;;;;;;;;;4905998;29;20189;-74
2023/05/29 07:04:25;;;;;;;8.63;4.93;;;;;;;;;;4885379;29;20151;-74
2023/05/29 07:06:51;;;;;;;14.38;5.05;;;;;;;;;;4917588;28;20111;-73
2023/05/29 07:09:18;;;;;;;9.13;5.00;;;;;;;;;;5047340;28;20141;-74
2023/05/29 07:11:45;;;;;;;16.95;7.22;;;;;;;;;;5049396;28;20473;-74
2023/05/29 07:14:12;;;;;;;16.60;8.85;;;;;;;;;;5054496;28;20121;-74
2023/05/29 07:16:38;;;;;;;8.02;5.00;;;;;;;;;;5036282;28;20116;-74
2023/05/29 07:19:06;;;;;;;13.88;4.70;;;;;;;;;;5052873;28;20036;-74
2023/05/29 07:21:35;;;;;;;10.43;4.97;;;;;;;;;;5053673;28;20052;-74
2023/05/29 07:24:02;;;;;;;8.02;4.80;;;;;;;;;;5053334;28;20441;-74
2023/05/29 07:26:27;;;;;;;12.85;5.38;;;;;;;;;;5053505;28;20108;-74
2023/05/29 07:28:53;;;;;;;10.48;6.00;;;;;;;;;;5054682;28;20032;-73
2023/05/29 07:31:19;;;;;;;11.93;4.75;;;;;;;;;;5052620;28;20056;-72
2023/05/29 07:33:47;;;;;;;11.40;5.47;;;;;;;;;;5053020;28;20535;-73
2023/05/29 07:36:17;;;;;;;8.45;4.47;;;;;;;;;;5052808;28;20034;-73
2023/05/29 07:38:43;;;;;;;11.23;5.15;;;;;;;;;;5053000;28;20495;-73
2023/05/29 07:41:10;;;;;;;7.82;4.22;;;;;;;;;;5052867;28;20064;-72
2023/05/29 07:43:38;;;;;;;7.32;4.28;;;;;;;;;;5053026;28;20044;-73
2023/05/29 07:46:07;;;;;;;8.27;4.10;;;;;;;;;;5051494;28;20028;-73
2023/05/29 07:48:35;;;;;;;14.80;4.53;;;;;;;;;;5034597;28;20079;-73
2023/05/29 07:51:02;;;;;;;6.88;3.50;;;;;;;;;;5052048;28;20028;-73
2023/05/29 07:53:33;;;;;;;7.60;4.20;;;;;;;;;;5053186;28;20040;-71
2023/05/29 07:55:59;;;;;;;5.90;3.90;;;;;;;;;;5036422;28;20493;-72
2023/05/29 07:58:25;;;;;;;15.55;4.30;;;;;;;;;;5053235;28;20147;-72
2023/05/29 08:00:51;;;;;;;6.68;3.53;;;;;;;;;;5052983;28;20029;-72
2023/05/29 08:03:17;;;;;;;5.03;3.67;;;;;;;;;;5053867;28;20025;-73
2023/05/29 08:06:06;;;;;;;11.82;5.65;;;;;;;;;;5050252;28;20356;-73
2023/05/29 08:08:33;;;;;;;8.30;4.05;;;;;;;;;;5052454;28;20477;-72
2023/05/29 08:11:00;;;;;;;6.90;3.25;;;;;;;;;;5036157;28;20103;-72
2023/05/29 08:13:30;;;;;;;11.05;4.07;;;;;;;;;;5053050;28;20037;-74
2023/05/29 08:15:56;;;;;;;9.25;4.18;;;;;;;;;;5052430;28;20068;-74
2023/05/29 08:18:26;;;;;;;7.07;3.88;;;;;;;;;;5053975;28;20056;-73
2023/05/29 08:20:52;;;;;;;7.47;4.20;;;;;;;;;;5053615;28;20087;-74
2023/05/29 08:23:18;;;;;;;7.70;4.03;;;;;;;;;;5053209;28;20487;-73
2023/05/29 08:25:45;;;;;;;6.70;4.30;;;;;;;;;;5052043;28;20029;-73
2023/05/29 08:28:10;;;;;;;10.60;4.97;;;;;;;;;;5053593;28;20032;-73
2023/05/29 08:30:37;;;;;;;8.20;4.13;;;;;;;;;;5053795;28;20029;-73
2023/05/29 08:33:03;;;;;;;7.28;4.53;;;;;;;;;;5053848;28;20095;-75
2023/05/29 08:35:29;;;;;;;5.85;4.13;;;;;;;;;;5053383;28;20033;-75
2023/05/29 08:37:55;;;;;;;8.90;3.90;;;;;;;;;;5053349;28;20067;-74
2023/05/29 08:40:22;;;;;;;8.05;3.63;;;;;;;;;;5053469;28;20041;-73
2023/05/29 08:42:57;;;;;;;8.35;3.75;;;;;;;;;;5053540;28;20140;-73
2023/05/29 08:45:24;;;;;;;5.80;3.45;;;;;;;;;;5053135;28;20045;-73
2023/05/29 08:47:54;;;;;;;6.22;3.58;;;;;;;;;;5053184;28;20036;-73
2023/05/29 08:50:21;;;;;;;8.73;3.95;;;;;;;;;;5052679;28;20040;-73
2023/05/29 08:52:47;;;;;;;8.98;4.18;;;;;;;;;;5053064;28;20029;-73
2023/05/29 08:55:16;;;;;;;6.72;3.40;;;;;;;;;;5051581;28;20041;-73
2023/05/29 08:57:45;;;;;;;6.35;3.47;;;;;;;;;;5052967;28;20027;-73
2023/05/29 09:00:12;;;;;;;7.80;3.25;;;;;;;;;;5051623;28;20399;-74
2023/05/29 09:02:44;;;;;;;8.48;4.13;;;;;;;;;;5053026;28;20032;-74
2023/05/29 09:05:10;;;;;;;7.20;3.60;;;;;;;;;;5052918;28;20565;-73
2023/05/29 09:07:39;;;;;;;5.57;3.03;;;;;;;;;;5052866;28;20116;-73
2023/05/29 09:10:07;;;;;;;6.30;3.97;;;;;;;;;;5052819;28;20440;-73
2023/05/29 09:12:33;;;;;;;5.47;3.30;;;;;;;;;;5052911;28;20031;-73
2023/05/29 09:15:00;;;;;;;5.10;3.47;;;;;;;;;;5051448;28;20063;-73
2023/05/29 09:17:30;;;;;;;5.25;3.35;;;;;;;;;;5052650;28;20096;-73
2023/05/29 09:19:56;;;;;;;13.18;3.33;;;;;;;;;;5052383;28;20033;-73
2023/05/29 09:22:22;;;;;;;6.93;3.13;;;;;;;;;;5052607;28;20489;-72
2023/05/29 09:24:50;;;;;;;5.60;3.42;;;;;;;;;;5052347;28;20036;-73
2023/05/29 09:27:17;;;;;;;7.90;3.70;;;;;;;;;;5051120;28;20029;-73
2023/05/29 09:29:45;;;;;;;8.15;3.90;;;;;;;;;;5052382;28;20029;-75
2023/05/29 09:32:16;;;;;;;5.15;3.50;;;;;;;;;;5052230;28;20025;-78
2023/05/29 09:34:45;;;;;;;8.13;4.13;;;;;;;;;;5052628;28;20044;-77
2023/05/29 09:37:12;;;;;;;6.75;3.45;;;;;;;;;;5050716;28;20134;-77
2023/05/29 09:39:46;;;;;;;6.30;3.42;;;;;;;;;;5052484;28;20033;-76
2023/05/29 09:42:12;;;;;;;6.72;4.00;;;;;;;;;;5052448;28;20060;-77
2023/05/29 09:44:40;;;;;;;5.10;3.42;;;;;;;;;;5052828;28;20044;-76
2023/05/29 09:47:06;;;;;;;7.30;3.60;;;;;;;;;;5052437;28;20372;-74
2023/05/29 09:49:32;;;;;;;6.35;3.30;;;;;;;;;;5052443;28;20043;-74
2023/05/29 09:51:59;;;;;;;4.28;3.20;;;;;;;;;;5052064;28;20033;-73
2023/05/29 09:54:29;;;;;;;6.63;3.30;;;;;;;;;;5051868;28;20509;-74
2023/05/29 09:56:56;;;;;;;6.38;3.53;;;;;;;;;;5050262;28;20119;-74
2023/05/29 09:59:24;;;;;;;4.70;3.30;;;;;;;;;;5051762;28;20399;-75
2023/05/29 10:02:04;;;;;;;6.65;3.63;;;;;;;;;;5050348;28;20128;-76
2023/05/29 10:04:32;;;;;;;5.65;3.08;;;;;;;;;;5030993;28;20052;-73
2023/05/29 10:07:04;;;;;;;5.22;3.63;;;;;;;;;;5040197;28;20028;-72
2023/05/29 10:09:31;;;;;;;6.95;3.97;;;;;;;;;;5051062;28;20040;-72
2023/05/29 10:12:00;;;;;;;6.57;3.85;;;;;;;;;;5050838;28;20497;-75
2023/05/29 10:14:28;;;;;;;5.25;3.28;;;;;;;;;;5050968;28;20434;-76
2023/05/29 10:16:58;;;;;;;5.50;3.28;;;;;;;;;;5051346;28;20031;-75
2023/05/29 10:19:26;;;;;;;5.18;3.25;;;;;;;;;;5051546;28;20098;-75
2023/05/29 10:21:53;;;;;;;4.97;3.10;;;;;;;;;;5050931;28;20060;-73
2023/05/29 10:24:20;;;;;;;8.38;3.60;;;;;;;;;;5050774;28;20078;-74
2023/05/29 10:26:49;;;;;;;7.22;3.38;;;;;;;;;;5050922;28;20057;-74
2023/05/29 10:29:31;;;;;;;6.43;3.70;;;;;;;;;;5051067;28;20083;-74
2023/05/29 10:32:34;;;;;;;5.68;3.28;;;;;;;;;;5050844;28;20032;-74
2023/05/29 10:35:16;;;;;;;5.17;3.20;;;;;;;;;;5051526;28;20094;-75
2023/05/29 10:37:44;;;;;;;8.95;4.13;;;;;;;;;;5050470;28;20051;-73
2023/05/29 10:40:14;;;;;;;5.82;3.67;;;;;;;;;;5051107;28;20072;-75
2023/05/29 10:42:46;;;;;;;5.47;4.07;;;;;;;;;;5050391;28;20060;-73
2023/05/29 10:45:32;;;;;;;13.13;4.88;;;;;;;;;;5050260;28;20130;-72
2023/05/29 10:48:06;;;;;;;5.05;3.15;;;;;;;;;;5046434;28;20044;-72
2023/05/29 10:50:51;;;;;;;7.00;3.67;;;;;;;;;;5049840;28;20048;-73
2023/05/29 10:53:22;;;;;;;7.43;3.55;;;;;;;;;;5050922;28;20132;-72
2023/05/29 10:55:50;;;;;;;15.88;5.28;;;;;;;;;;5051013;28;20036;-72
2023/05/29 10:58:24;;;;;;;7.40;4.07;;;;;;;;;;5049531;28;20031;-72
2023/05/29 11:00:53;;;;;;;7.25;3.70;;;;;;;;;;5050547;28;20052;-73
2023/05/29 11:03:21;;;;;;;7.93;3.60;;;;;;;;;;5049520;28;20040;-73
2023/05/29 11:06:01;;;;;;;6.03;4.05;;;;;;;;;;5050862;28;20033;-74
2023/05/29 11:08:46;;;;;;;4.75;3.20;;;;;;;;;;5049847;28;20132;-75
2023/05/29 11:11:14;;;;;;;5.00;3.40;;;;;;;;;;5050546;28;20045;-74
2023/05/29 11:13:44;;;;;;;5.68;3.17;;;;;;;;;;5050826;28;20131;-74
2023/05/29 11:16:13;;;;;;;7.32;3.42;;;;;;;;;;5050581;28;20058;-72
2023/05/29 11:18:40;;;;;;;5.63;3.40;;;;;;;;;;5050704;28;20033;-73
2023/05/29 11:21:23;;;;;;;7.50;3.20;;;;;;;;;;5050783;28;20041;-73
2023/05/29 11:23:51;;;;;;;7.30;3.07;;;;;;;;;;5050892;28;20041;-74
2023/05/29 11:26:17;;;;;;;9.57;3.55;;;;;;;;;;5049145;28;20048;-74
2023/05/29 11:28:43;;;;;;;9.75;3.72;;;;;;;;;;5050902;28;20502;-72
2023/05/29 11:31:10;;;;;;;5.10;3.10;;;;;;;;;;5050559;28;20029;-74
2023/05/29 11:33:49;;;;;;;4.80;3.00;;;;;;;;;;5049253;28;20043;-75
2023/05/29 11:36:17;;;;;;;5.72;3.08;;;;;;;;;;5050553;28;20048;-73
2023/05/29 11:38:43;;;;;;;6.07;2.75;;;;;;;;;;5050559;28;20063;-77
2023/05/29 11:41:09;;;;;;;5.82;2.85;;;;;;;;;;5049982;28;20049;-75
2023/05/29 11:43:35;;;;;;;5.93;2.95;;;;;;;;;;5050883;28;20107;-75
2023/05/29 11:46:01;;;;;;;5.80;3.20;;;;;;;;;;5048769;28;20036;-75
2023/05/29 11:48:27;;;;;;;3.70;2.70;;;;;;;;;;5049871;28;20394;-74
2023/05/29 11:50:53;;;;;;;6.88;3.40;;;;;;;;;;5050869;28;20037;-75
2023/05/29 11:53:19;;;;;;;5.95;3.60;;;;;;;;;;5050393;28;20101;-74
2023/05/29 11:55:44;;;;;;;6.32;2.72;;;;;;;;;;5051055;28;20048;-74
2023/05/29 11:58:11;;;;;;;6.93;3.20;;;;;;;;;;5050423;28;20017;-74
2023/05/29 12:00:39;;;;;;;4.60;2.92;;;;;;;;;;5052096;28;20044;-73
2023/05/29 12:03:07;;;;;;;6.28;3.22;;;;;;;;;;5053322;28;20494;-74
2023/05/29 12:05:55;;;;;;;5.78;2.95;;;;;;;;;;5054188;28;20043;-73
2023/05/29 12:08:23;;;;;;;6.72;3.40;;;;;;;;;;5054383;28;20572;-73
2023/05/29 12:10:49;;;;;;;7.40;4.05;;;;;;;;;;5054408;28;20099;-74
2023/05/29 12:13:18;;;;;;;7.93;2.90;;;;;;;;;;5055093;28;20151;-74
2023/05/29 12:15:44;;;;;;;8.00;3.90;;;;;;;;;;5054360;28;20033;-74
2023/05/29 12:18:11;;;;;;;9.88;3.70;;;;;;;;;;5054258;28;20506;-75
2023/05/29 12:20:36;;;;;;;5.78;3.22;;;;;;;;;;5052932;28;20024;-75
2023/05/29 12:23:02;;;;;;;7.32;3.53;;;;;;;;;;5052633;28;20132;-74
2023/05/29 12:25:28;;;;;;;11.82;3.63;;;;;;;;;;5053788;28;20088;-76
2023/05/29 12:27:57;;;;;;;13.45;4.22;;;;;;;;;;5052774;28;20060;-75
2023/05/29 12:30:24;;;;;;;8.13;3.38;;;;;;;;;;5054095;28;20021;-73
2023/05/29 12:32:51;;;;;;;5.25;3.03;;;;;;;;;;5054043;28;20044;-75
2023/05/29 12:35:19;;;;;;;8.70;3.20;;;;;;;;;;5052504;28;20379;-73
2023/05/29 12:37:49;;;;;;;9.32;2.90;;;;;;;;;;5054229;28;20428;-74
2023/05/29 12:40:22;;;;;;;5.05;2.53;;;;;;;;;;5054634;28;20039;-74
2023/05/29 12:42:53;;;;;;;7.00;2.90;;;;;;;;;;5052694;28;20376;-74
2023/05/29 12:45:19;;;;;;;9.32;2.60;;;;;;;;;;5053605;28;20044;-73
2023/05/29 12:47:52;;;;;;;9.75;2.92;;;;;;;;;;5053670;28;20021;-73
2023/05/29 12:50:26;;;;;;;7.38;2.70;;;;;;;;;;5053563;28;20032;-73
2023/05/29 12:52:58;;;;;;;6.40;3.00;;;;;;;;;;5053651;28;20388;-73
2023/05/29 12:55:25;;;;;;;3.60;2.10;;;;;;;;;;5053253;28;20036;-75
2023/05/29 12:57:50;;;;;;;4.50;2.13;;;;;;;;;;5053481;28;20021;-74
2023/05/29 13:00:17;;;;;;;4.93;2.40;;;;;;;;;;5053203;28;20094;-75
2023/05/29 13:02:44;;;;;;;8.98;2.50;;;;;;;;;;5053661;28;20076;-74
2023/05/29 13:05:10;;;;;;;11.90;2.92;;;;;;;;;;5053293;28;20394;-74
2023/05/29 13:07:36;;;;;;;3.88;2.65;;;;;;;;;;5053561;28;20025;-75
2023/05/29 13:10:02;;;;;;;5.32;2.13;;;;;;;;;;5053232;28;20036;-75
2023/05/29 13:12:27;;;;;;;7.45;2.40;;;;;;;;;;5053181;28;20029;-74
2023/05/29 13:14:55;;;;;;;8.27;2.70;;;;;;;;;;5053185;28;20037;-75
2023/05/29 13:17:21;;;;;;;4.70;2.67;;;;;;;;;;5053042;28;20035;-75
2023/05/29 13:19:47;;;;;;;8.45;3.00;;;;;;;;;;5053249;28;20111;-74
2023/05/29 13:22:13;;;;;;;6.03;3.20;;;;;;;;;;5051685;28;20021;-75
2023/05/29 13:24:39;;;;;;;6.93;2.97;;;;;;;;;;5051497;28;20037;-75
2023/05/29 13:27:05;;;;;;;6.13;3.00;;;;;;;;;;5051491;28;20447;-75
2023/05/29 13:29:31;;;;;;;6.72;3.28;;;;;;;;;;5052990;28;20032;-74
2023/05/29 13:31:57;;;;;;;7.03;3.08;;;;;;;;;;5051988;28;20028;-75
2023/05/29 13:34:28;;;;;;;9.27;3.30;;;;;;;;;;5053063;28;20045;-74
2023/05/29 13:36:55;;;;;;;13.10;3.55;;;;;;;;;;5051692;28;20532;-74
2023/05/29 13:39:20;;;;;;;5.30;3.10;;;;;;;;;;5052877;28;20379;-74
2023/05/29 13:41:46;;;;;;;8.65;3.65;;;;;;;;;;5052932;28;20035;-75
2023/05/29 13:44:13;;;;;;;6.30;3.53;;;;;;;;;;5052564;28;20025;-75
2023/05/29 13:46:39;;;;;;;5.80;3.25;;;;;;;;;;5052227;28;20573;-75
2023/05/29 13:49:04;;;;;;;6.10;3.40;;;;;;;;;;5052873;28;20024;-75
2023/05/29 13:51:30;;;;;;;7.22;4.30;;;;;;;;;;5052462;28;20163;-75
2023/05/29 13:53:56;;;;;;;7.93;3.40;;;;;;;;;;5034570;28;20028;-74
2023/05/29 13:56:22;;;;;;;6.18;3.45;;;;;;;;;;5052353;28;20043;-75
2023/05/29 13:58:48;;;;;;;10.40;3.72;;;;;;;;;;5052153;28;20553;-75
2023/05/29 14:01:18;;;;;;;9.07;3.80;;;;;;;;;;5051016;28;20052;-73
2023/05/29 14:03:44;;;;;;;8.63;3.63;;;;;;;;;;5050643;28;20402;-73
2023/05/29 14:06:10;;;;;;;9.00;3.38;;;;;;;;;;5048496;28;20040;-75
2023/05/29 14:08:36;;;;;;;4.95;2.70;;;;;;;;;;5045803;28;20863;-74
2023/05/29 14:11:02;;;;;;;15.02;3.58;;;;;;;;;;5048898;28;20116;-72
2023/05/29 14:13:28;;;;;;;9.15;3.60;;;;;;;;;;5047631;28;20036;-75
2023/05/29 14:15:56;;;;;;;7.18;3.22;;;;;;;;;;5045900;28;20090;-76
2023/05/29 14:18:21;;;;;;;6.00;3.15;;;;;;;;;;5047480;28;20045;-75
2023/05/29 14:20:48;;;;;;;11.70;3.20;;;;;;;;;;5046476;28;20037;-75
2023/05/29 14:23:17;;;;;;;7.18;3.25;;;;;;;;;;5034009;28;20033;-77
2023/05/29 14:25:44;;;;;;;5.55;3.22;;;;;;;;;;5030539;28;20490;-75
2023/05/29 14:28:10;;;;;;;5.20;2.90;;;;;;;;;;5040074;28;20029;-75
2023/05/29 14:30:39;;;;;;;4.80;2.97;;;;;;;;;;5032567;28;20025;-74
2023/05/29 14:33:04;;;;;;;5.95;2.83;;;;;;;;;;5031360;28;20053;-76
2023/05/29 14:35:30;;;;;;;5.40;2.65;;;;;;;;;;5031335;28;20028;-76
2023/05/29 14:37:57;;;;;;;9.52;2.80;;;;;;;;;;5039715;28;20037;-75
2023/05/29 14:40:22;;;;;;;4.65;2.80;;;;;;;;;;5031298;28;20048;-76
2023/05/29 14:42:50;;;;;;;4.32;2.63;;;;;;;;;;5048579;28;20506;-76
2023/05/29 14:45:17;;;;;;;5.78;2.78;;;;;;;;;;5051220;28;20033;-75
2023/05/29 14:47:42;;;;;;;9.45;2.83;;;;;;;;;;5051028;28;20314;-75
2023/05/29 14:50:09;;;;;;;6.43;3.03;;;;;;;;;;5051079;28;20092;-76
2023/05/29 14:52:34;;;;;;;5.25;3.10;;;;;;;;;;5051307;28;20036;-75
2023/05/29 14:55:02;;;;;;;6.40;2.75;;;;;;;;;;5050895;28;20486;-75
2023/05/29 14:57:30;;;;;;;6.25;2.90;;;;;;;;;;5051396;28;20467;-76
2023/05/29 14:59:55;;;;;;;5.97;2.83;;;;;;;;;;5051016;28;20040;-76
2023/05/29 15:02:21;;;;;;;4.82;2.50;;;;;;;;;;5051109;28;20041;-75
2023/05/29 15:04:47;;;;;;;4.80;2.70;;;;;;;;;;5049565;28;20251;-74
2023/05/29 15:07:13;;;;;;;9.65;2.70;;;;;;;;;;5050819;28;20388;-75
2023/05/29 15:09:39;;;;;;;3.90;2.42;;;;;;;;;;5051097;28;20082;-75
2023/05/29 15:12:07;;;;;;;5.50;2.70;;;;;;;;;;5050809;28;20033;-75
2023/05/29 15:14:32;;;;;;;4.57;2.70;;;;;;;;;;5050911;28;20183;-74
2023/05/29 15:16:59;;;;;;;5.95;2.72;;;;;;;;;;5050439;28;20112;-74
2023/05/29 15:19:26;;;;;;;9.13;3.50;;;;;;;;;;5051101;28;20025;-72
2023/05/29 15:21:52;;;;;;;7.13;3.10;;;;;;;;;;5051043;28;20179;-73
2023/05/29 15:24:18;;;;;;;7.28;2.90;;;;;;;;;;5051366;28;20506;-73
2023/05/29 15:26:44;;;;;;;4.93;2.70;;;;;;;;;;5051177;28;20041;-74
2023/05/29 15:29:09;;;;;;;5.32;2.88;;;;;;;;;;5051029;28;20036;-74
2023/05/29 15:31:36;;;;;;;7.30;2.60;;;;;;;;;;5050684;28;20065;-74
2023/05/29 15:34:02;;;;;;;7.50;3.08;;;;;;;;;;5053118;28;20096;-74
2023/05/29 15:36:28;;;;;;;8.77;3.15;;;;;;;;;;5053479;28;20090;-74
2023/05/29 15:38:55;;;;;;;6.20;2.90;;;;;;;;;;5054624;28;20033;-74
2023/05/29 15:41:20;;;;;;;4.97;2.78;;;;;;;;;;5054623;28;20461;-71
2023/05/29 15:43:46;;;;;;;6.15;3.10;;;;;;;;;;5053123;28;20120;-75
2023/05/29 15:46:12;;;;;;;7.97;3.42;;;;;;;;;;5054340;28;20057;-74
2023/05/29 15:48:38;;;;;;;7.47;2.78;;;;;;;;;;5054094;28;20031;-75
2023/05/29 15:51:03;;;;;;;5.10;3.28;;;;;;;;;;5053614;28;20033;-73
2023/05/29 15:53:29;;;;;;;5.05;2.72;;;;;;;;;;5036691;28;20155;-74
2023/05/29 15:55:55;;;;;;;7.10;2.80;;;;;;;;;;5053735;28;20132;-74
2023/05/29 15:58:21;;;;;;;7.55;3.03;;;;;;;;;;5054276;28;20291;-74
2023/05/29 16:00:47;;;;;;;6.60;3.08;;;;;;;;;;5053958;28;20063;-74
2023/05/29 16:03:13;;;;;;;5.43;3.13;;;;;;;;;;5053997;28;20119;-73
2023/05/29 16:05:38;;;;;;;5.28;2.83;;;;;;;;;;5051704;28;20040;-74
2023/05/29 16:08:05;;;;;;;8.18;3.38;;;;;;;;;;5049186;28;20025;-73
2023/05/29 16:10:31;;;;;;;6.43;2.83;;;;;;;;;;5048766;28;20017;-73
2023/05/29 16:12:56;;;;;;;9.13;3.45;;;;;;;;;;5049924;28;20025;-74
2023/05/29 16:15:23;;;;;;;8.68;3.33;;;;;;;;;;5050495;28;20124;-73
2023/05/29 16:17:48;;;;;;;6.43;2.85;;;;;;;;;;5050006;28;20797;-74
2023/05/29 16:20:16;;;;;;;6.03;3.10;;;;;;;;;;5050245;28;20044;-73
2023/05/29 16:22:41;;;;;;;5.68;3.03;;;;;;;;;;5048685;28;20037;-72
2023/05/29 16:25:08;;;;;;;4.85;3.33;;;;;;;;;;5048350;28;20053;-74
2023/05/29 16:27:33;;;;;;;7.43;3.30;;;;;;;;;;5049648;28;20045;-73
2023/05/29 16:30:00;;;;;;;7.30;3.25;;;;;;;;;;5049154;28;20041;-73
2023/05/29 16:32:27;;;;;;;8.93;3.15;;;;;;;;;;5049445;28;20029;-74
2023/05/29 16:34:54;;;;;;;5.10;2.75;;;;;;;;;;5048658;28;20466;-74
2023/05/29 16:37:22;;;;;;;8.30;2.60;;;;;;;;;;5048808;28;20104;-72
2023/05/29 16:39:48;;;;;;;4.50;2.97;;;;;;;;;;5045805;28;20121;-73
2023/05/29 16:42:14;;;;;;;6.82;2.50;;;;;;;;;;5049213;28;20029;-74
2023/05/29 16:44:39;;;;;;;5.10;2.63;;;;;;;;;;5047812;28;20039;-73
2023/05/29 16:47:05;;;;;;;4.85;2.60;;;;;;;;;;5045969;28;20060;-74
2023/05/29 16:49:31;;;;;;;9.63;3.42;;;;;;;;;;5050782;28;20029;-74
2023/05/29 16:51:56;;;;;;;4.88;2.83;;;;;;;;;;5051061;28;20068;-74
2023/05/29 16:54:22;;;;;;;5.28;2.58;;;;;;;;;;5048796;28;20044;-74
2023/05/29 16:56:54;;;;;;;10.15;3.17;;;;;;;;;;5032204;28;20133;-73
2023/05/29 16:59:20;;;;;;;12.88;4.30;;;;;;;;;;5048609;28;20496;-73
2023/05/29 17:01:46;;;;;;;6.88;3.38;;;;;;;;;;5049322;28;20021;-72
2023/05/29 17:04:11;;;;;;;7.50;2.97;;;;;;;;;;5049584;28;20463;-73
2023/05/29 17:06:37;;;;;;;9.48;3.30;;;;;;;;;;5050153;28;20819;-73
2023/05/29 17:09:04;;;;;;;11.18;3.70;;;;;;;;;;5049355;28;20037;-72
2023/05/29 17:11:30;;;;;;;14.90;3.90;;;;;;;;;;5049655;28;20017;-73
2023/05/29 17:13:56;;;;;;;6.68;3.65;;;;;;;;;;5048530;28;20379;-73
2023/05/29 17:16:22;;;;;;;12.23;3.63;;;;;;;;;;5048294;28;20024;-73
2023/05/29 17:18:47;;;;;;;7.55;4.28;;;;;;;;;;5049387;28;20687;-73
2023/05/29 17:21:13;;;;;;;6.47;3.50;;;;;;;;;;5048827;28;20039;-73
2023/05/29 17:23:39;;;;;;;8.38;4.15;;;;;;;;;;5049117;28;20044;-75
2023/05/29 17:26:05;;;;;;;17.08;4.50;;;;;;;;;;5049719;28;20025;-74
2023/05/29 17:28:30;;;;;;;13.88;4.93;;;;;;;;;;5049863;28;20475;-74
2023/05/29 17:30:56;;;;;;;10.98;3.92;;;;;;;;;;5048125;28;20018;-74
2023/05/29 17:33:22;;;;;;;10.02;3.97;;;;;;;;;;5047192;28;20047;-74
2023/05/29 17:35:47;;;;;;;8.48;4.05;;;;;;;;;;5047535;28;20069;-73
2023/05/29 17:38:13;;;;;;;9.85;3.50;;;;;;;;;;5045971;28;20399;-73
2023/05/29 17:40:39;;;;;;;11.77;4.00;;;;;;;;;;5047417;28;20029;-74
2023/05/29 17:43:05;;;;;;;15.23;4.20;;;;;;;;;;5047895;28;20094;-74
2023/05/29 17:45:32;;;;;;;14.05;4.68;;;;;;;;;;5047324;28;20037;-73
2023/05/29 17:47:58;;;;;;;7.35;3.80;;;;;;;;;;5046948;28;20069;-72
2023/05/29 17:50:24;;;;;;;10.40;4.40;;;;;;;;;;5047380;28;20483;-72
2023/05/29 17:52:51;;;;;;;11.68;4.43;;;;;;;;;;5045747;28;20045;-72
2023/05/29 17:55:17;;;;;;;10.27;4.55;;;;;;;;;;5047550;28;20386;-72
2023/05/29 17:57:43;;;;;;;13.43;4.72;;;;;;;;;;5046658;28;20116;-72
2023/05/29 18:00:10;;;;;;;11.13;4.45;;;;;;;;;;5046020;28;20609;-73
2023/05/29 18:02:38;;;;;;;10.13;3.92;;;;;;;;;;5045914;28;20040;-72
2023/05/29 18:05:05;;;;;;;15.02;4.70;;;;;;;;;;5043360;28;20037;-73
2023/05/29 18:07:32;;;;;;;15.13;4.80;;;;;;;;;;5045654;28;20060;-73
2023/05/29 18:09:57;;;;;;;17.05;5.45;;;;;;;;;;5046760;28;20071;-73
2023/05/29 18:12:23;;;;;;;16.35;4.13;;;;;;;;;;5046633;28;20029;-73
2023/05/29 18:14:50;;;;;;;19.88;5.38;;;;;;;;;;5045953;28;20416;-72
2023/05/29 18:17:16;;;;;;;11.82;4.60;;;;;;;;;;5046000;28;20116;-73
2023/05/29 18:19:42;;;;;;;14.50;3.97;;;;;;;;;;5046072;28;20028;-73
2023/05/29 18:22:08;;;;;;;11.48;4.65;;;;;;;;;;5046199;28;20376;-73
2023/05/29 18:24:33;;;;;;;11.95;3.95;;;;;;;;;;5044390;28;20466;-73
2023/05/29 18:27:03;;;;;;;12.60;4.68;;;;;;;;;;5044087;28;20490;-73
2023/05/29 18:29:29;;;;;;;15.52;5.05;;;;;;;;;;5029292;28;20037;-72
2023/05/29 18:31:55;;;;;;;11.73;4.70;;;;;;;;;;5046320;28;20079;-73
2023/05/29 18:34:21;;;;;;;9.40;4.68;;;;;;;;;;5028435;28;20037;-73
2023/05/29 18:36:47;;;;;;;14.10;4.53;;;;;;;;;;5044920;28;20033;-73
2023/05/29 18:39:14;;;;;;;6.97;4.00;;;;;;;;;;5044485;28;20563;-73